sensor_id;sensor_type;location;lat;lon;timestamp;pressure;altitude;pressure_sealevel;temperature;humidity
24746;BME280;12845;52.042;6.838;2023-03-01T00:02:00;-17963.81;;;-2.34;100.00
24746;BME280;12845;52.042;6.838;2023-03-01T00:04:26;-17963.53;;;-2.35;100.00
24746;BME280;12845;52.042;6.838;2023-03-01T00:06:52;-17963.38;;;-2.36;100.00
24746;BME280;12845;52.042;6.838;2023-03-01T00:09:18;-17959.63;;;-2.50;100.00
24746;BME280;12845;52.042;6.838;2023-03-01T00:11:43;-17960.47;;;-2.46;100.00
24746;BME280;12845;52.042;6.838;2023-03-01T00:14:09;-17958.53;;;-2.54;100.00
24746;BME280;12845;52.042;6.838;2023-03-01T00:16:37;-17957.28;;;-2.58;100.00
24746;BME280;12845;52.042;6.838;2023-03-01T00:19:04;-17955.06;;;-2.66;100.00
24746;BME280;12845;52.042;6.838;2023-03-01T00:21:30;-17957.69;;;-2.57;100.00
24746;BME280;12845;52.042;6.838;2023-03-01T00:23:56;-17955.63;;;-2.64;100.00
24746;BME280;12845;52.042;6.838;2023-03-01T00:26:23;-17956.03;;;-2.63;100.00
24746;BME280;12845;52.042;6.838;2023-03-01T00:28:49;-17956.72;;;-2.60;100.00
24746;BME280;12845;52.042;6.838;2023-03-01T00:31:18;-17955.19;;;-2.66;100.00
24746;BME280;12845;52.042;6.838;2023-03-01T00:33:44;-17955.47;;;-2.65;100.00
24746;BME280;12845;52.042;6.838;2023-03-01T00:36:11;-17954.91;;;-2.67;100.00
24746;BME280;12845;52.042;6.838;2023-03-01T00:38:43;-17956.31;;;-2.62;100.00
24746;BME280;12845;52.042;6.838;2023-03-01T00:41:12;-17956.16;;;-2.62;100.00
24746;BME280;12845;52.042;6.838;2023-03-01T00:43:38;-17953.25;;;-2.73;100.00
24746;BME280;12845;52.042;6.838;2023-03-01T00:46:05;-17951.16;;;-2.81;100.00
24746;BME280;12845;52.042;6.838;2023-03-01T00:48:31;-17953.53;;;-2.72;100.00
24746;BME280;12845;52.042;6.838;2023-03-01T00:50:57;-17951.16;;;-2.81;100.00
24746;BME280;12845;52.042;6.838;2023-03-01T00:53:22;-17951.88;;;-2.78;100.00
24746;BME280;12845;52.042;6.838;2023-03-01T00:55:47;-17948.25;;;-2.91;100.00
24746;BME280;12845;52.042;6.838;2023-03-01T00:58:13;-17947.28;;;-2.95;100.00
24746;BME280;12845;52.042;6.838;2023-03-01T01:00:38;-17945.75;;;-3.01;100.00
24746;BME280;12845;52.042;6.838;2023-03-01T01:03:03;-17945.47;;;-3.02;100.00
24746;BME280;12845;52.042;6.838;2023-03-01T01:05:29;-17944.91;;;-3.04;100.00
24746;BME280;12845;52.042;6.838;2023-03-01T01:07:54;-17943.94;;;-3.07;100.00
24746;BME280;12845;52.042;6.838;2023-03-01T01:10:20;-17944.38;;;-3.06;100.00
24746;BME280;12845;52.042;6.838;2023-03-01T01:12:45;-17944.91;;;-3.04;100.00
24746;BME280;12845;52.042;6.838;2023-03-01T01:15:11;-17942.16;;;-3.14;100.00
24746;BME280;12845;52.042;6.838;2023-03-01T01:17:39;-17942.00;;;-3.14;100.00
24746;BME280;12845;52.042;6.838;2023-03-01T01:20:05;-17942.00;;;-3.14;100.00
24746;BME280;12845;52.042;6.838;2023-03-01T01:22:31;-17941.03;;;-3.18;100.00
24746;BME280;12845;52.042;6.838;2023-03-01T01:24:57;-17938.94;;;-3.26;100.00
24746;BME280;12845;52.042;6.838;2023-03-01T01:27:22;-17938.81;;;-3.26;100.00
24746;BME280;12845;52.042;6.838;2023-03-01T01:29:47;-17937.41;;;-3.31;100.00
24746;BME280;12845;52.042;6.838;2023-03-01T01:32:13;-17937.97;;;-3.29;100.00
24746;BME280;12845;52.042;6.838;2023-03-01T01:34:38;-17936.44;;;-3.35;100.00
24746;BME280;12845;52.042;6.838;2023-03-01T01:37:04;-17935.47;;;-3.38;100.00
24746;BME280;12845;52.042;6.838;2023-03-01T01:39:33;-17934.38;;;-3.43;100.00
24746;BME280;12845;52.042;6.838;2023-03-01T01:42:00;-17937.00;;;-3.33;100.00
24746;BME280;12845;52.042;6.838;2023-03-01T01:44:26;-17936.88;;;-3.33;100.00
24746;BME280;12845;52.042;6.838;2023-03-01T01:49:35;-17933.41;;;-3.46;100.00
24746;BME280;12845;52.042;6.838;2023-03-01T01:52:21;-17932.97;;;-3.48;100.00
24746;BME280;12845;52.042;6.838;2023-03-01T01:54:51;-17933.94;;;-3.44;100.00
24746;BME280;12845;52.042;6.838;2023-03-01T01:57:23;-17931.88;;;-3.52;100.00
24746;BME280;12845;52.042;6.838;2023-03-01T01:59:54;-17931.88;;;-3.52;100.00
24746;BME280;12845;52.042;6.838;2023-03-01T02:02:21;-17931.03;;;-3.55;100.00
24746;BME280;12845;52.042;6.838;2023-03-01T02:04:48;-17930.47;;;-3.57;100.00
24746;BME280;12845;52.042;6.838;2023-03-01T02:07:20;-17931.59;;;-3.53;100.00
24746;BME280;12845;52.042;6.838;2023-03-01T02:09:48;-17929.38;;;-3.61;100.00
24746;BME280;12845;52.042;6.838;2023-03-01T02:12:15;-17928.13;;;-3.66;100.00
24746;BME280;12845;52.042;6.838;2023-03-01T02:14:42;-17927.84;;;-3.67;100.00
24746;BME280;12845;52.042;6.838;2023-03-01T02:17:08;-17929.66;;;-3.60;100.00
24746;BME280;12845;52.042;6.838;2023-03-01T02:19:50;-17928.69;;;-3.64;100.00
24746;BME280;12845;52.042;6.838;2023-03-01T02:22:24;-17928.13;;;-3.66;100.00
24746;BME280;12845;52.042;6.838;2023-03-01T02:28:00;-17925.47;;;-3.75;100.00
24746;BME280;12845;52.042;6.838;2023-03-01T02:30:28;-17925.91;;;-3.74;100.00
24746;BME280;12845;52.042;6.838;2023-03-01T02:32:55;-17925.47;;;-3.75;100.00
24746;BME280;12845;52.042;6.838;2023-03-01T02:35:32;-17924.09;;;-3.80;100.00
24746;BME280;12845;52.042;6.838;2023-03-01T02:38:00;-17923.81;;;-3.81;100.00
24746;BME280;12845;52.042;6.838;2023-03-01T02:40:28;-17923.81;;;-3.81;100.00
24746;BME280;12845;52.042;6.838;2023-03-01T02:42:57;-17924.78;;;-3.78;100.00
24746;BME280;12845;52.042;6.838;2023-03-01T02:45:23;-17922.84;;;-3.85;100.00
24746;BME280;12845;52.042;6.838;2023-03-01T02:47:49;-17922.69;;;-3.86;100.00
24746;BME280;12845;52.042;6.838;2023-03-01T02:53:31;-17921.59;;;-3.90;100.00
24746;BME280;12845;52.042;6.838;2023-03-01T02:56:00;-17921.72;;;-3.89;100.00
24746;BME280;12845;52.042;6.838;2023-03-01T02:58:26;-17920.47;;;-3.94;100.00
24746;BME280;12845;52.042;6.838;2023-03-01T03:00:51;-17921.44;;;-3.90;100.00
24746;BME280;12845;52.042;6.838;2023-03-01T03:03:20;-17922.69;;;-3.86;100.00
24746;BME280;12845;52.042;6.838;2023-03-01T03:05:46;-17921.72;;;-3.89;100.00
24746;BME280;12845;52.042;6.838;2023-03-01T03:08:11;-17922.16;;;-3.88;100.00
24746;BME280;12845;52.042;6.838;2023-03-01T03:10:40;-17922.84;;;-3.85;100.00
24746;BME280;12845;52.042;6.838;2023-03-01T03:13:11;-17923.13;;;-3.84;100.00
24746;BME280;12845;52.042;6.838;2023-03-01T03:15:37;-17921.31;;;-3.91;100.00
24746;BME280;12845;52.042;6.838;2023-03-01T03:18:06;-17918.53;;;-4.01;100.00
24746;BME280;12845;52.042;6.838;2023-03-01T03:20:32;-17918.25;;;-4.02;100.00
24746;BME280;12845;52.042;6.838;2023-03-01T03:22:58;-17920.34;;;-3.94;100.00
24746;BME280;12845;52.042;6.838;2023-03-01T03:25:25;-17920.75;;;-3.93;100.00
24746;BME280;12845;52.042;6.838;2023-03-01T03:27:51;-17919.78;;;-3.96;100.00
24746;BME280;12845;52.042;6.838;2023-03-01T03:30:23;-17918.41;;;-4.01;100.00
24746;BME280;12845;52.042;6.838;2023-03-01T03:32:48;-17917.56;;;-4.04;100.00
24746;BME280;12845;52.042;6.838;2023-03-01T03:35:28;-17918.81;;;-4.00;100.00
24746;BME280;12845;52.042;6.838;2023-03-01T03:37:56;-17918.81;;;-4.00;100.00
24746;BME280;12845;52.042;6.838;2023-03-01T03:41:01;-17914.94;;;-4.14;100.00
24746;BME280;12845;52.042;6.838;2023-03-01T03:43:27;-17913.25;;;-4.20;100.00
24746;BME280;12845;52.042;6.838;2023-03-01T03:45:53;-17911.88;;;-4.25;100.00
24746;BME280;12845;52.042;6.838;2023-03-01T03:48:19;-17914.09;;;-4.17;100.00
24746;BME280;12845;52.042;6.838;2023-03-01T03:50:50;-17912.69;;;-4.22;100.00
24746;BME280;12845;52.042;6.838;2023-03-01T03:53:17;-17912.28;;;-4.24;100.00
24746;BME280;12845;52.042;6.838;2023-03-01T03:55:42;-17911.03;;;-4.28;100.00
24746;BME280;12845;52.042;6.838;2023-03-01T03:58:10;-17913.53;;;-4.19;100.00
24746;BME280;12845;52.042;6.838;2023-03-01T04:00:41;-17912.41;;;-4.23;100.00
24746;BME280;12845;52.042;6.838;2023-03-01T04:03:11;-17911.03;;;-4.28;100.00
24746;BME280;12845;52.042;6.838;2023-03-01T04:05:37;-17908.94;;;-4.36;100.00
24746;BME280;12845;52.042;6.838;2023-03-01T04:08:03;-17911.72;;;-4.26;100.00
24746;BME280;12845;52.042;6.838;2023-03-01T04:10:40;-17911.03;;;-4.28;100.00
24746;BME280;12845;52.042;6.838;2023-03-01T04:13:08;-17911.72;;;-4.26;100.00
24746;BME280;12845;52.042;6.838;2023-03-01T04:15:34;-17910.19;;;-4.32;100.00
24746;BME280;12845;52.042;6.838;2023-03-01T04:18:00;-17911.88;;;-4.25;100.00
24746;BME280;12845;52.042;6.838;2023-03-01T04:20:28;-17909.09;;;-4.36;100.00
24746;BME280;12845;52.042;6.838;2023-03-01T04:25:39;-17909.91;;;-4.33;100.00
24746;BME280;12845;52.042;6.838;2023-03-01T04:28:05;-17910.75;;;-4.29;100.00
24746;BME280;12845;52.042;6.838;2023-03-01T04:30:31;-17909.38;;;-4.35;100.00
24746;BME280;12845;52.042;6.838;2023-03-01T04:33:07;-17908.81;;;-4.37;100.00
24746;BME280;12845;52.042;6.838;2023-03-01T04:35:34;-17911.16;;;-4.28;100.00
24746;BME280;12845;52.042;6.838;2023-03-01T04:38:00;-17909.78;;;-4.33;100.00
24746;BME280;12845;52.042;6.838;2023-03-01T04:40:25;-17908.53;;;-4.38;100.00
24746;BME280;12845;52.042;6.838;2023-03-01T04:42:51;-17908.81;;;-4.37;100.00
24746;BME280;12845;52.042;6.838;2023-03-01T04:45:16;-17909.38;;;-4.35;100.00
24746;BME280;12845;52.042;6.838;2023-03-01T04:47:43;-17908.81;;;-4.37;100.00
24746;BME280;12845;52.042;6.838;2023-03-01T04:50:10;-17909.38;;;-4.35;100.00
24746;BME280;12845;52.042;6.838;2023-03-01T04:52:37;-17908.53;;;-4.38;100.00
24746;BME280;12845;52.042;6.838;2023-03-01T04:55:03;-17907.16;;;-4.43;100.00
24746;BME280;12845;52.042;6.838;2023-03-01T04:57:29;-17905.75;;;-4.48;100.00
24746;BME280;12845;52.042;6.838;2023-03-01T04:59:55;-17907.69;;;-4.41;100.00
24746;BME280;12845;52.042;6.838;2023-03-01T05:02:21;-17905.88;;;-4.47;100.00
24746;BME280;12845;52.042;6.838;2023-03-01T05:04:46;-17905.47;;;-4.49;100.00
24746;BME280;12845;52.042;6.838;2023-03-01T05:07:11;-17903.81;;;-4.55;100.00
24746;BME280;12845;52.042;6.838;2023-03-01T05:09:38;-17904.38;;;-4.53;100.00
24746;BME280;12845;52.042;6.838;2023-03-01T05:12:04;-17904.38;;;-4.53;100.00
24746;BME280;12845;52.042;6.838;2023-03-01T05:14:29;-17906.31;;;-4.46;100.00
24746;BME280;12845;52.042;6.838;2023-03-01T05:16:54;-17905.75;;;-4.48;100.00
24746;BME280;12845;52.042;6.838;2023-03-01T05:19:20;-17905.47;;;-4.49;100.00
24746;BME280;12845;52.042;6.838;2023-03-01T05:21:48;-17905.88;;;-4.47;100.00
24746;BME280;12845;52.042;6.838;2023-03-01T05:24:31;-17906.16;;;-4.46;100.00
24746;BME280;12845;52.042;6.838;2023-03-01T05:26:57;-17906.03;;;-4.47;100.00
24746;BME280;12845;52.042;6.838;2023-03-01T05:29:24;-17902.69;;;-4.59;100.00
24746;BME280;12845;52.042;6.838;2023-03-01T05:31:58;-17903.38;;;-4.57;100.00
24746;BME280;12845;52.042;6.838;2023-03-01T05:34:29;-17901.84;;;-4.62;100.00
24746;BME280;12845;52.042;6.838;2023-03-01T05:36:55;-17902.84;;;-4.59;100.00
24746;BME280;12845;52.042;6.838;2023-03-01T05:39:21;-17902.84;;;-4.59;100.00
24746;BME280;12845;52.042;6.838;2023-03-01T05:41:48;-17900.75;;;-4.66;100.00
24746;BME280;12845;52.042;6.838;2023-03-01T05:44:13;-17902.13;;;-4.61;100.00
24746;BME280;12845;52.042;6.838;2023-03-01T05:46:39;-17902.41;;;-4.60;100.00
24746;BME280;12845;52.042;6.838;2023-03-01T05:49:04;-17900.88;;;-4.66;100.00
24746;BME280;12845;52.042;6.838;2023-03-01T05:51:30;-17901.56;;;-4.63;100.00
24746;BME280;12845;52.042;6.838;2023-03-01T05:53:55;-17900.88;;;-4.66;100.00
24746;BME280;12845;52.042;6.838;2023-03-01T05:56:21;-17898.38;;;-4.75;100.00
24746;BME280;12845;52.042;6.838;2023-03-01T05:58:50;-17898.66;;;-4.74;100.00
24746;BME280;12845;52.042;6.838;2023-03-01T06:01:15;-17899.06;;;-4.72;100.00
24746;BME280;12845;52.042;6.838;2023-03-01T06:03:41;-17899.06;;;-4.72;100.00
24746;BME280;12845;52.042;6.838;2023-03-01T06:06:06;-17898.66;;;-4.74;100.00
24746;BME280;12845;52.042;6.838;2023-03-01T06:08:32;-17897.56;;;-4.78;100.00
24746;BME280;12845;52.042;6.838;2023-03-01T06:10:57;-17899.22;;;-4.72;100.00
24746;BME280;12845;52.042;6.838;2023-03-01T06:13:23;-17899.22;;;-4.72;100.00
24746;BME280;12845;52.042;6.838;2023-03-01T06:15:48;-17900.19;;;-4.68;100.00
24746;BME280;12845;52.042;6.838;2023-03-01T06:18:14;-17900.88;;;-4.66;100.00
24746;BME280;12845;52.042;6.838;2023-03-01T06:20:39;-17902.41;;;-4.60;100.00
24746;BME280;12845;52.042;6.838;2023-03-01T06:23:05;-17903.94;;;-4.55;100.00
24746;BME280;12845;52.042;6.838;2023-03-01T06:25:30;-17904.38;;;-4.53;100.00
24746;BME280;12845;52.042;6.838;2023-03-01T06:27:56;-17905.88;;;-4.47;100.00
24746;BME280;12845;52.042;6.838;2023-03-01T06:30:23;-17907.16;;;-4.43;100.00
24746;BME280;12845;52.042;6.838;2023-03-01T06:32:48;-17908.66;;;-4.37;100.00
24746;BME280;12845;52.042;6.838;2023-03-01T06:35:15;-17907.97;;;-4.40;100.00
24746;BME280;12845;52.042;6.838;2023-03-01T06:37:43;-17908.25;;;-4.39;100.00
24746;BME280;12845;52.042;6.838;2023-03-01T06:40:09;-17909.22;;;-4.35;100.00
24746;BME280;12845;52.042;6.838;2023-03-01T06:42:37;-17909.66;;;-4.34;100.00
24746;BME280;12845;52.042;6.838;2023-03-01T06:45:04;-17910.47;;;-4.31;100.00
24746;BME280;12845;52.042;6.838;2023-03-01T06:47:30;-17910.34;;;-4.31;100.00
24746;BME280;12845;52.042;6.838;2023-03-01T06:49:56;-17912.28;;;-4.24;100.00
24746;BME280;12845;52.042;6.838;2023-03-01T06:52:21;-17913.25;;;-4.20;100.00
24746;BME280;12845;52.042;6.838;2023-03-01T06:54:46;-17913.66;;;-4.19;100.00
24746;BME280;12845;52.042;6.838;2023-03-01T06:57:12;-17916.03;;;-4.10;100.00
24746;BME280;12845;52.042;6.838;2023-03-01T06:59:37;-17916.88;;;-4.07;100.00
24746;BME280;12845;52.042;6.838;2023-03-01T07:02:02;-17917.69;;;-4.04;100.00
24746;BME280;12845;52.042;6.838;2023-03-01T07:04:28;-17920.63;;;-3.93;100.00
24746;BME280;12845;52.042;6.838;2023-03-01T07:06:56;-17922.16;;;-3.88;100.00
24746;BME280;12845;52.042;6.838;2023-03-01T07:09:22;-17922.16;;;-3.88;100.00
24746;BME280;12845;52.042;6.838;2023-03-01T07:11:48;-17925.06;;;-3.77;100.00
24746;BME280;12845;52.042;6.838;2023-03-01T07:14:14;-17929.66;;;-3.60;100.00
24746;BME280;12845;52.042;6.838;2023-03-01T07:16:39;-17932.00;;;-3.51;100.00
24746;BME280;12845;52.042;6.838;2023-03-01T07:19:05;-17935.06;;;-3.40;100.00
24746;BME280;12845;52.042;6.838;2023-03-01T07:21:30;-17935.34;;;-3.39;100.00
24746;BME280;12845;52.042;6.838;2023-03-01T07:23:56;-17936.44;;;-3.35;100.00
24746;BME280;12845;52.042;6.838;2023-03-01T07:26:21;-17939.50;;;-3.24;100.00
24746;BME280;12845;52.042;6.838;2023-03-01T07:28:47;-17942.28;;;-3.13;100.00
24746;BME280;12845;52.042;6.838;2023-03-01T07:31:12;-17944.66;;;-3.05;100.00
24746;BME280;12845;52.042;6.838;2023-03-01T07:33:38;-17947.56;;;-2.94;100.00
24746;BME280;12845;52.042;6.838;2023-03-01T07:36:04;-17947.00;;;-2.96;100.00
24746;BME280;12845;52.042;6.838;2023-03-01T07:38:30;-17948.81;;;-2.89;100.00
24746;BME280;12845;52.042;6.838;2023-03-01T07:41:02;-17953.66;;;-2.72;100.00
24746;BME280;12845;52.042;6.838;2023-03-01T07:43:28;-17956.03;;;-2.63;100.00
24746;BME280;12845;52.042;6.838;2023-03-01T07:45:54;-17959.34;;;-2.51;100.00
24746;BME280;12845;52.042;6.838;2023-03-01T07:48:20;-17960.47;;;-2.46;100.00
24746;BME280;12845;52.042;6.838;2023-03-01T07:50:45;-17963.25;;;-2.36;100.00
24746;BME280;12845;52.042;6.838;2023-03-01T07:53:10;-17965.88;;;-2.27;100.00
24746;BME280;12845;52.042;6.838;2023-03-01T07:55:36;-17966.03;;;-2.26;100.00
24746;BME280;12845;52.042;6.838;2023-03-01T07:58:02;-17968.09;;;-2.18;100.00
24746;BME280;12845;52.042;6.838;2023-03-01T08:00:27;-17970.31;;;-2.10;100.00
24746;BME280;12845;52.042;6.838;2023-03-01T08:02:52;-17973.66;;;-1.98;100.00
24746;BME280;12845;52.042;6.838;2023-03-01T08:05:18;-17978.91;;;-1.78;100.00
24746;BME280;12845;52.042;6.838;2023-03-01T08:07:43;-17981.56;;;-1.69;100.00
24746;BME280;12845;52.042;6.838;2023-03-01T08:10:09;-17983.78;;;-1.61;100.00
24746;BME280;12845;52.042;6.838;2023-03-01T08:12:35;-17988.22;;;-1.44;100.00
24746;BME280;12845;52.042;6.838;2023-03-01T08:15:00;-17990.03;;;-1.38;100.00
24746;BME280;12845;52.042;6.838;2023-03-01T08:17:25;-17993.75;;;-1.24;100.00
24746;BME280;12845;52.042;6.838;2023-03-01T08:19:51;-17997.38;;;-1.10;100.00
24746;BME280;12845;52.042;6.838;2023-03-01T08:22:16;-17999.16;;;-1.04;100.00
24746;BME280;12845;52.042;6.838;2023-03-01T08:24:41;-18002.91;;;-0.90;100.00
24746;BME280;12845;52.042;6.838;2023-03-01T08:27:07;-18007.06;;;-0.75;100.00
24746;BME280;12845;52.042;6.838;2023-03-01T08:29:33;-18011.22;;;-0.59;100.00
24746;BME280;12845;52.042;6.838;2023-03-01T08:31:58;-18013.19;;;-0.52;100.00
24746;BME280;12845;52.042;6.838;2023-03-01T08:34:24;-18016.63;;;-0.39;100.00
24746;BME280;12845;52.042;6.838;2023-03-01T08:36:49;-18019.56;;;-0.29;100.00
24746;BME280;12845;52.042;6.838;2023-03-01T08:39:19;-18021.75;;;-0.20;100.00
24746;BME280;12845;52.042;6.838;2023-03-01T08:41:45;-18023.28;;;-0.15;100.00
24746;BME280;12845;52.042;6.838;2023-03-01T08:44:12;-18027.16;;;-0.01;100.00
24746;BME280;12845;52.042;6.838;2023-03-01T08:46:40;-18031.47;;;0.15;100.00
24746;BME280;12845;52.042;6.838;2023-03-01T08:49:08;-18035.47;;;0.30;100.00
24746;BME280;12845;52.042;6.838;2023-03-01T08:51:33;-18038.53;;;0.41;100.00
24746;BME280;12845;52.042;6.838;2023-03-01T08:54:06;-18042.28;;;0.55;100.00
24746;BME280;12845;52.042;6.838;2023-03-01T08:56:32;-18044.75;;;0.64;100.00
24746;BME280;12845;52.042;6.838;2023-03-01T08:58:57;-18046.84;;;0.72;100.00
24746;BME280;12845;52.042;6.838;2023-03-01T09:01:23;-18047.81;;;0.76;100.00
24746;BME280;12845;52.042;6.838;2023-03-01T09:03:48;-18050.84;;;0.87;100.00
24746;BME280;12845;52.042;6.838;2023-03-01T09:06:14;-18054.03;;;0.99;100.00
24746;BME280;12845;52.042;6.838;2023-03-01T09:08:41;-18055.28;;;1.03;100.00
24746;BME280;12845;52.042;6.838;2023-03-01T09:11:09;-18058.88;;;1.17;100.00
24746;BME280;12845;52.042;6.838;2023-03-01T09:13:35;-18061.50;;;1.26;100.00
24746;BME280;12845;52.042;6.838;2023-03-01T09:16:02;-18063.88;;;1.35;100.00
24746;BME280;12845;52.042;6.838;2023-03-01T09:18:29;-18067.06;;;1.47;100.00
24746;BME280;12845;52.042;6.838;2023-03-01T09:21:05;-18070.09;;;1.58;100.00
24746;BME280;12845;52.042;6.838;2023-03-01T09:23:35;-18071.34;;;1.63;100.00
24746;BME280;12845;52.042;6.838;2023-03-01T09:26:02;-18075.34;;;1.77;100.00
24746;BME280;12845;52.042;6.838;2023-03-01T09:28:28;-18078.41;;;1.89;100.00
24746;BME280;12845;52.042;6.838;2023-03-01T09:30:53;-18080.88;;;1.98;100.00
24746;BME280;12845;52.042;6.838;2023-03-01T09:33:18;-18087.94;;;2.24;100.00
24746;BME280;12845;52.042;6.838;2023-03-01T09:35:44;-18090.03;;;2.32;100.00
24746;BME280;12845;52.042;6.838;2023-03-01T09:38:13;-18092.25;;;2.40;100.00
24746;BME280;12845;52.042;6.838;2023-03-01T09:40:43;-18095.41;;;2.52;100.00
24746;BME280;12845;52.042;6.838;2023-03-01T09:43:31;-18100.69;;;2.71;100.00
24746;BME280;12845;52.042;6.838;2023-03-01T09:46:04;-18102.59;;;2.78;100.00
24746;BME280;12845;52.042;6.838;2023-03-01T09:48:38;-18103.16;;;2.80;100.00
24746;BME280;12845;52.042;6.838;2023-03-01T09:51:09;-18105.50;;;2.89;100.00
24746;BME280;12845;52.042;6.838;2023-03-01T09:53:38;-18109.25;;;3.03;100.00
24746;BME280;12845;52.042;6.838;2023-03-01T09:56:19;-18113.25;;;3.17;100.00
24746;BME280;12845;52.042;6.838;2023-03-01T10:09:39;-18121.41;;;3.48;100.00
24746;BME280;12845;52.042;6.838;2023-03-01T10:12:09;-18123.34;;;3.55;100.00
24746;BME280;12845;52.042;6.838;2023-03-01T10:14:40;-18124.72;;;3.60;100.00
24746;BME280;12845;52.042;6.838;2023-03-01T10:19:41;-18130.53;;;3.81;100.00
24746;BME280;12845;52.042;6.838;2023-03-01T10:22:24;-18128.31;;;3.73;100.00
24746;BME280;12845;52.042;6.838;2023-03-01T10:24:53;-18125.97;;;3.65;100.00
24746;BME280;12845;52.042;6.838;2023-03-01T10:27:24;-18129.28;;;3.77;100.00
24746;BME280;12845;52.042;6.838;2023-03-01T10:32:34;-18133.84;;;3.94;100.00
24746;BME280;12845;52.042;6.838;2023-03-01T10:34:59;-18135.38;;;3.99;100.00
24746;BME280;12845;52.042;6.838;2023-03-01T10:37:25;-18136.47;;;4.03;100.00
24746;BME280;12845;52.042;6.838;2023-03-01T10:42:36;-18139.66;;;4.15;100.00
24746;BME280;12845;52.042;6.838;2023-03-01T10:48:06;-18141.84;;;4.23;100.00
24746;BME280;12845;52.042;6.838;2023-03-01T10:50:36;-18143.38;;;4.29;100.00
24746;BME280;12845;52.042;6.838;2023-03-01T10:53:04;-18145.44;;;4.37;100.00
24746;BME280;12845;52.042;6.838;2023-03-01T10:55:34;-18147.53;;;4.44;100.00
24746;BME280;12845;52.042;6.838;2023-03-01T10:58:21;-18149.88;;;4.53;100.00
24746;BME280;12845;52.042;6.838;2023-03-01T11:03:24;-18154.84;;;4.71;100.00
24746;BME280;12845;52.042;6.838;2023-03-01T11:11:14;-18158.00;;;4.83;100.00
24746;BME280;12845;52.042;6.838;2023-03-01T11:16:49;-18161.31;;;4.95;100.00
24746;BME280;12845;52.042;6.838;2023-03-01T11:19:23;-18161.47;;;4.96;100.00
24746;BME280;12845;52.042;6.838;2023-03-01T11:22:02;-18161.75;;;4.97;98.38
24746;BME280;12845;52.042;6.838;2023-03-01T11:24:37;-18162.56;;;5.00;100.00
24746;BME280;12845;52.042;6.838;2023-03-01T11:27:14;-18161.03;;;4.94;100.00
24746;BME280;12845;52.042;6.838;2023-03-01T11:29:44;-18165.47;;;5.11;89.97
24746;BME280;12845;52.042;6.838;2023-03-01T11:32:13;-18165.88;;;5.12;97.11
24746;BME280;12845;52.042;6.838;2023-03-01T11:34:59;-18166.44;;;5.14;95.66
24746;BME280;12845;52.042;6.838;2023-03-01T11:40:27;-18173.34;;;5.40;99.49
24746;BME280;12845;52.042;6.838;2023-03-01T11:43:05;-18174.03;;;5.42;99.44
24746;BME280;12845;52.042;6.838;2023-03-01T11:51:23;-18179.69;;;5.63;82.32
24746;BME280;12845;52.042;6.838;2023-03-01T11:54:12;-18177.88;;;5.57;83.16
24746;BME280;12845;52.042;6.838;2023-03-01T11:56:57;-18181.06;;;5.69;96.91
24746;BME280;12845;52.042;6.838;2023-03-01T12:05:04;-18189.34;;;5.99;88.56
24746;BME280;12845;52.042;6.838;2023-03-01T12:07:51;-18189.63;;;6.00;82.58
24746;BME280;12845;52.042;6.838;2023-03-01T12:13:22;-18192.38;;;6.10;83.41
24746;BME280;12845;52.042;6.838;2023-03-01T12:21:33;-18199.81;;;6.38;82.24
24746;BME280;12845;52.042;6.838;2023-03-01T12:29:38;-18211.94;;;6.83;77.26
24746;BME280;12845;52.042;6.838;2023-03-01T12:40:19;-18209.75;;;6.75;81.59
24746;BME280;12845;52.042;6.838;2023-03-01T12:43:03;-18214.84;;;6.94;78.70
24746;BME280;12845;52.042;6.838;2023-03-01T12:46:05;-18219.66;;;7.12;75.68
24746;BME280;12845;52.042;6.838;2023-03-01T12:48:58;-18218.97;;;7.09;70.64
24746;BME280;12845;52.042;6.838;2023-03-01T12:51:28;-18221.75;;;7.19;76.31
24746;BME280;12845;52.042;6.838;2023-03-01T12:53:57;-18223.25;;;7.25;82.80
24746;BME280;12845;52.042;6.838;2023-03-01T12:56:46;-18226.28;;;7.36;75.04
24746;BME280;12845;52.042;6.838;2023-03-01T13:07:25;-18242.69;;;7.97;69.10
24746;BME280;12845;52.042;6.838;2023-03-01T13:15:28;-18243.78;;;8.01;63.63
24746;BME280;12845;52.042;6.838;2023-03-01T13:30:57;-18256.31;;;8.48;74.41
24746;BME280;12845;52.042;6.838;2023-03-01T13:35:51;-18260.16;;;8.62;69.67
24746;BME280;12845;52.042;6.838;2023-03-01T13:39:25;-18261.81;;;8.68;63.75
24746;BME280;12845;52.042;6.838;2023-03-01T13:44:30;-18259.63;;;8.60;80.80
24746;BME280;12845;52.042;6.838;2023-03-01T13:49:55;-18258.50;;;8.56;76.55
24746;BME280;12845;52.042;6.838;2023-03-01T13:52:40;-18259.06;;;8.58;69.66
24746;BME280;12845;52.042;6.838;2023-03-01T13:58:01;-18265.94;;;8.84;62.58
24746;BME280;12845;52.042;6.838;2023-03-01T14:00:32;-18264.00;;;8.76;59.92
24746;BME280;12845;52.042;6.838;2023-03-01T14:03:16;-18265.13;;;8.80;59.07
24746;BME280;12845;52.042;6.838;2023-03-01T14:05:57;-18262.63;;;8.71;58.89
24746;BME280;12845;52.042;6.838;2023-03-01T14:08:25;-18262.63;;;8.71;57.84
24746;BME280;12845;52.042;6.838;2023-03-01T14:13:47;-18265.41;;;8.81;56.22
24746;BME280;12845;52.042;6.838;2023-03-01T14:19:12;-18258.50;;;8.56;55.97
24746;BME280;12845;52.042;6.838;2023-03-01T14:21:39;-18260.44;;;8.63;55.40
24746;BME280;12845;52.042;6.838;2023-03-01T14:24:05;-18265.13;;;8.80;58.61
24746;BME280;12845;52.042;6.838;2023-03-01T14:26:31;-18269.66;;;8.97;61.58
24746;BME280;12845;52.042;6.838;2023-03-01T14:28:58;-18273.38;;;9.11;62.29
24746;BME280;12845;52.042;6.838;2023-03-01T14:31:38;-18277.91;;;9.28;63.54
24746;BME280;12845;52.042;6.838;2023-03-01T14:34:04;-18276.25;;;9.22;53.41
24746;BME280;12845;52.042;6.838;2023-03-01T14:36:32;-18276.00;;;9.21;52.43
24746;BME280;12845;52.042;6.838;2023-03-01T14:38:57;-18272.81;;;9.09;51.82
24746;BME280;12845;52.042;6.838;2023-03-01T14:41:33;-18274.75;;;9.16;54.75
24746;BME280;12845;52.042;6.838;2023-03-01T14:44:19;-18276.81;;;9.24;70.36
24746;BME280;12845;52.042;6.838;2023-03-01T14:46:52;-18281.91;;;9.43;74.48
24746;BME280;12845;52.042;6.838;2023-03-01T14:49:24;-18282.88;;;9.46;62.38
24746;BME280;12845;52.042;6.838;2023-03-01T14:51:59;-18285.63;;;9.57;67.34
24746;BME280;12845;52.042;6.838;2023-03-01T14:54:42;-18285.06;;;9.55;64.58
24746;BME280;12845;52.042;6.838;2023-03-01T14:57:17;-18279.00;;;9.32;55.93
24746;BME280;12845;52.042;6.838;2023-03-01T14:59:43;-18280.81;;;9.39;59.40